Albany, Wisconsin
Current Conditions -  °F | °C
As of 10:15 PM on Monday 22 Dec 2014 (Local Time) from KEFT Reporting Station
Moderate Fog Moderate Fog  
Wind Chill: 31°   Ceiling: 300
Heat Index: 36°   Visibility: 0.25mi
Dew Point: 36°   Wind: 6mph
Humidity: 100%   Direction: 70°ENE
Pressure: 29.56"   Gusts: NA
Location:  42.71°N, 89.44°W
Report Text: KEFT 230415Z AUTO 07005KT 1/4SM FG OVC003 02/02 A2956 RMK AO2
Loading
Personal Weather Stations






























Interactive Weather Map New forecast layout! Learn more

10-Day Weather Forecast

Advertisements
Track Severe Weather on mobile